Latest Weather Observations for Port Kembla Harbour

IDN60801

Issued at 1:22 pm EDT Wednesday 27 March 2019 (issued every 10 minutes, with the page automatically refreshed every 10 minutes)

About weather observations | Map of weather stations | Latest weather observations for NSW | Other Formats
Station Details ID: 068253 Name: PORT KEMBLA NTC AWS Lat: -34.47 Lon: 150.91 Height: 0.0 m
Data from the previous 72 hours. | See also: Recent months for locations in New South Wales
Date/Time
EDT
Temp
°C
App
Temp
°C
Dew
Point
°C
Rel
Hum
%
Delta-T
°C
Wind Press
QNH
hPa
Press
MSL
hPa
Rain since
9am
mm
Dir  Spd
km/h
Gust
km/h
Spd
kts
Gust
kts
27/01:00pm 20.1 - - - - SSE 11 20 6 11 1024.3 1024.3 -
27/12:30pm 20.2 - - - - SSE 13 22 7 12 1024.6 1024.6 -
27/12:00pm 19.9 - - - - SSE 13 24 7 13 1024.7 1024.7 -
27/11:30am 20.4 - - - - S 11 22 6 12 1024.8 1024.8 -
27/11:00am 19.8 - - - - SSW 11 20 6 11 1024.8 1024.8 -
27/10:30am 19.5 - - - - SSW 9 19 5 10 1024.7 1024.7 -
27/10:00am 19.4 - - - - SW 11 20 6 11 1024.6 1024.6 -
27/09:30am 19.0 - - - - SW 9 19 5 10 1024.4 1024.4 -
27/09:00am 18.4 - - - - SW 13 19 7 10 1024.2 1024.2 -
27/08:30am 18.1 - - - - SW 9 13 5 7 1023.9 1023.9 -
27/08:00am 18.1 - - - - WSW 7 13 4 7 1023.5 1023.5 -
27/07:30am 17.9 - - - - WSW 6 9 3 5 1023.2 1023.2 -
27/07:00am 18.1 - - - - WSW 7 13 4 7 1022.8 1022.8 -
27/06:30am 18.2 - - - - WSW 6 9 3 5 1022.5 1022.5 -
27/06:00am 17.7 - - - - W 9 13 5 7 1022.2 1022.2 -
27/05:30am 17.5 - - - - WSW 6 9 3 5 1022.0 1022.0 -
27/05:00am 16.7 - - - - W 6 7 3 4 1021.8 1021.8 -
27/04:30am 16.4 - - - - WSW 7 11 4 6 1021.7 1021.7 -
27/04:00am 16.6 - - - - WSW 7 9 4 5 1021.6 1021.6 -
27/03:30am 16.7 - - - - WSW 7 11 4 6 1021.6 1021.6 -
27/03:00am 16.7 - - - - WSW 7 9 4 5 1021.7 1021.7 -
27/02:30am 17.0 - - - - W 7 9 4 5 1021.8 1021.8 -
27/02:00am 17.1 - - - - W 7 9 4 5 1021.8 1021.8 -
27/01:30am 17.4 - - - - WSW 6 9 3 5 1021.8 1021.8 -
27/01:00am 17.1 - - - - SW 7 11 4 6 1021.6 1021.6 -
27/12:30am 17.3 - - - - SW 7 11 4 6 1021.6 1021.6 -
27/12:00am 18.0 - - - - SW 7 9 4 5 1021.8 1021.8 -
 
Date/Time
EDT
Temp
°C
App
Temp
°C
Dew
Point
°C
Rel
Hum
%
Delta-T
°C
Wind Press
QNH
hPa
Press
MSL
hPa
Rain since
9am
mm
Dir  Spd
km/h
Gust
km/h
Spd
kts
Gust
kts
26/11:30pm 18.2 - - - - WSW 7 11 4 6 1021.8 1021.8 -
26/11:00pm 18.4 - - - - SW 7 11 4 6 1021.6 1021.6 -
26/10:30pm 18.7 - - - - WSW 9 15 5 8 1021.6 1021.6 -
26/10:00pm 18.7 - - - - SW 7 13 4 7 1021.2 1021.2 -
26/09:30pm 19.1 - - - - WSW 11 13 6 7 1020.9 1020.9 -
26/09:00pm 20.4 - - - - SSE 7 15 4 8 1020.4 1020.4 -
26/08:30pm 20.7 - - - - SE 7 13 4 7 1019.8 1019.8 -
26/08:00pm 20.8 - - - - SSE 7 15 4 8 1019.1 1019.1 -
26/07:30pm 20.8 - - - - SSE 7 13 4 7 1018.6 1018.6 -
26/07:00pm 20.8 - - - - SSE 11 20 6 11 1017.9 1017.9 -
26/06:30pm 20.9 - - - - SSE 11 20 6 11 1017.3 1017.3 -
26/06:00pm 20.9 - - - - SE 19 26 10 14 1016.7 1016.7 -
26/05:30pm 21.0 - - - - SE 20 30 11 16 1016.2 1016.2 -
26/05:00pm 21.2 - - - - SE 19 26 10 14 1015.7 1015.7 -
26/04:30pm 21.5 - - - - SE 17 28 9 15 1015.4 1015.4 -
26/04:00pm 21.5 - - - - SE 26 35 14 19 1015.2 1015.2 -
26/03:30pm 23.0 - - - - SSE 11 19 6 10 1015.0 1015.0 -
26/03:00pm 23.1 - - - - WSW 17 28 9 15 1015.0 1015.0 -
26/02:30pm 22.8 - - - - SW 17 26 9 14 1014.9 1014.9 -
26/02:00pm 22.4 - - - - WSW 19 28 10 15 1015.3 1015.3 -
26/01:30pm 21.9 - - - - WSW 22 35 12 19 1015.6 1015.6 -
26/01:00pm 21.9 - - - - WSW 24 39 13 21 1015.7 1015.7 -
26/12:30pm 21.5 - - - - W 33 46 18 25 1015.5 1015.5 -
26/12:00pm 20.8 - - - - W 30 44 16 24 1015.5 1015.5 -
26/11:30am 20.3 - - - - WSW 30 39 16 21 1015.6 1015.6 -
26/11:00am 19.8 - - - - W 20 35 11 19 1015.5 1015.5 -
26/10:30am 19.0 - - - - W 26 37 14 20 1015.6 1015.6 -
26/10:00am 18.1 - - - - WSW 24 33 13 18 1015.6 1015.6 -
26/09:30am 17.8 - - - - W 17 28 9 15 1015.2 1015.2 -
26/09:00am 17.5 - - - - WNW 19 26 10 14 1014.9 1014.9 -
26/08:30am 17.5 - - - - WNW 17 24 9 13 1014.8 1014.8 -
26/08:00am 17.5 - - - - W 17 26 9 14 1014.7 1014.7 -
26/07:30am 17.5 - - - - W 13 19 7 10 1014.4 1014.4 -
26/07:00am 17.9 - - - - W 20 30 11 16 1014.4 1014.4 -
26/06:30am 17.7 - - - - W 15 22 8 12 1014.0 1014.0 -
26/06:00am 18.2 - - - - W 17 19 9 10 1013.8 1013.8 -
26/05:30am 18.3 - - - - W 19 24 10 13 1013.5 1013.5 -
26/05:00am 18.7 - - - - WNW 17 26 9 14 1013.1 1013.1 -
26/04:30am 18.9 - - - - WNW 19 22 10 12 1012.7 1012.7 -
26/04:00am 19.2 - - - - W 13 20 7 11 1012.6 1012.6 -
26/03:30am 19.3 - - - - W 9 13 5 7 1012.5 1012.5 -
26/03:00am 19.6 - - - - WSW 13 22 7 12 1012.6 1012.6 -
26/02:30am 19.4 - - - - SW 4 9 2 5 1012.6 1012.6 -
26/02:00am 20.0 - - - - WNW 6 9 3 5 1012.9 1012.9 -
26/01:30am 20.2 - - - - W 15 20 8 11 1012.9 1012.9 -
26/01:00am 20.5 - - - - W 11 20 6 11 1012.7 1012.7 -
26/12:30am 20.9 - - - - W 11 15 6 8 1012.4 1012.4 -
26/12:00am 21.3 - - - - WNW 17 24 9 13 1012.0 1012.0 -
 
Date/Time
EDT
Temp
°C
App
Temp
°C
Dew
Point
°C
Rel
Hum
%
Delta-T
°C
Wind Press
QNH
hPa
Press
MSL
hPa
Rain since
9am
mm
Dir  Spd
km/h
Gust
km/h
Spd
kts
Gust
kts
25/11:30pm 21.6 - - - - W 26 43 14 23 1011.5 1011.5 -
25/11:00pm 22.2 - - - - WNW 19 32 10 17 1011.1 1011.1 -
25/10:30pm 22.4 - - - - WNW 32 41 17 22 1010.8 1010.8 -
25/10:00pm 22.9 - - - - WNW 30 43 16 23 1010.7 1010.7 -
25/09:30pm 23.2 - - - - W 35 54 19 29 1010.5 1010.5 -
25/09:04pm 23.4 - - - - W 33 52 18 28 1010.7 1010.7 -
25/09:00pm 23.4 - - - - W 32 44 17 24 1010.6 1010.6 -
25/08:30pm 23.5 - - - - W 30 39 16 21 1010.1 1010.1 -
25/08:00pm 24.0 - - - - W 22 30 12 16 1009.4 1009.4 -
25/07:30pm 24.3 - - - - WNW 17 32 9 17 1008.7 1008.7 -
25/07:00pm 24.8 - - - - WNW 32 44 17 24 1007.9 1007.9 -
25/06:48pm 24.8 - - - - W 28 48 15 26 1007.8 1007.8 -
25/06:34pm 26.0 - - - - W 13 39 7 21 1007.7 1007.7 -
25/06:30pm 25.4 - - - - WNW 7 13 4 7 1007.3 1007.3 -
25/06:00pm 25.3 - - - - NNE 6 9 3 5 1006.4 1006.4 -
25/05:30pm 25.5 - - - - N 6 9 3 5 1006.2 1006.2 -
25/05:00pm 25.5 - - - - N 9 17 5 9 1005.8 1005.8 -
25/04:30pm 25.7 - - - - N 13 22 7 12 1005.6 1005.6 -
25/04:00pm 25.5 - - - - NNE 17 24 9 13 1005.2 1005.2 -
25/03:30pm 25.2 - - - - NNE 17 20 9 11 1005.1 1005.1 -
25/03:00pm 25.1 - - - - NNE 13 20 7 11 1005.1 1005.1 -
25/02:30pm 25.0 - - - - N 13 17 7 9 1005.7 1005.7 -
25/02:00pm 25.0 - - - - N 11 19 6 10 1005.9 1005.9 -
25/01:30pm 24.6 - - - - NNW 15 22 8 12 1006.3 1006.3 -
25/01:00pm 24.4 - - - - N 17 24 9 13 1006.7 1006.7 -
25/12:30pm 24.2 - - - - N 17 32 9 17 1007.1 1007.1 -
25/12:00pm 24.0 - - - - N 17 24 9 13 1007.2 1007.2 -
25/11:30am 24.0 - - - - NNW 19 28 10 15 1007.3 1007.3 -
25/11:00am 24.0 - - - - NNW 20 33 11 18 1007.3 1007.3 -
25/10:30am 23.9 - - - - NNW 17 24 9 13 1007.3 1007.3 -
25/10:00am 23.5 - - - - NW 19 28 10 15 1008.1 1008.1 -
25/09:30am 24.1 - - - - NW 20 28 11 15 1008.0 1008.0 -
25/09:00am 24.1 - - - - NW 17 26 9 14 1007.8 1007.8 -
25/08:30am 24.3 - - - - NW 24 37 13 20 1007.8 1007.8 -
25/08:00am 24.0 - - - - NW 26 37 14 20 1008.1 1008.1 -
25/07:30am 24.7 - - - - WNW 28 39 15 21 1008.3 1008.3 -
25/07:08am 25.6 - - - - WNW 30 52 16 28 1008.2 1008.2 -
25/07:00am 25.6 - - - - WNW 26 43 14 23 1008.2 1008.2 -
25/06:33am 25.7 - - - - WNW 32 50 17 27 1007.9 1007.9 -
25/06:30am 25.7 - - - - WNW 33 50 18 27 1007.8 1007.8 -
25/06:00am 25.8 - - - - WNW 37 57 20 31 1007.9 1007.9 -
25/05:45am 25.9 - - - - WNW 35 54 19 29 1007.6 1007.6 -
25/05:30am 25.2 - - - - WNW 28 39 15 21 1007.5 1007.5 -
25/05:00am 25.3 - - - - WNW 15 26 8 14 1007.8 1007.8 -
25/04:30am 25.6 - - - - NNW 11 22 6 12 1007.1 1007.1 -
25/04:00am 25.7 - - - - NNW 19 30 10 16 1007.4 1007.4 -
25/03:30am 24.8 - - - - NNE 17 20 9 11 1007.7 1007.7 -
25/03:00am 24.9 - - - - NNW 20 28 11 15 1008.5 1008.5 -
25/02:30am 25.0 - - - - NNW 15 24 8 13 1008.0 1008.0 -
25/02:00am 24.4 - - - - N 13 20 7 11 1008.1 1008.1 -
25/01:30am 24.6 - - - - N 15 22 8 12 1008.6 1008.6 -
25/01:00am 24.5 - - - - NNE 20 28 11 15 1008.9 1008.9 -
25/12:30am 24.7 - - - - N 19 30 10 16 1009.4 1009.4 -
25/12:00am 24.9 - - - - NNW 17 22 9 12 1009.9 1009.9 -
 
Date/Time
EDT
Temp
°C
App
Temp
°C
Dew
Point
°C
Rel
Hum
%
Delta-T
°C
Wind Press
QNH
hPa
Press
MSL
hPa
Rain since
9am
mm
Dir  Spd
km/h
Gust
km/h
Spd
kts
Gust
kts
24/11:30pm 24.9 - - - - NNW 28 41 15 22 1009.5 1009.5 -
24/11:00pm 25.4 - - - - NNW 22 28 12 15 1009.2 1009.2 -
24/10:30pm 25.4 - - - - N 9 17 5 9 1009.3 1009.3 -
24/10:00pm 24.7 - - - - NE 9 17 5 9 1009.1 1009.1 -
24/09:30pm 25.7 - - - - NNW 9 13 5 7 1009.1 1009.1 -
24/09:00pm 25.3 - - - - NNW 17 22 9 12 1009.1 1009.1 -
24/08:30pm 24.7 - - - - NNE 9 15 5 8 1009.6 1009.6 -
24/08:00pm 24.5 - - - - NNE 9 13 5 7 1009.9 1009.9 -
24/07:30pm 24.3 - - - - NNE 11 15 6 8 1009.8 1009.8 -
24/07:00pm 24.3 - - - - NNE 9 11 5 6 1009.8 1009.8 -
24/06:30pm 24.3 - - - - NNE 9 13 5 7 1009.8 1009.8 -
24/06:00pm 24.3 - - - - NE 6 7 3 4 1009.3 1009.3 -
24/05:30pm 24.3 - - - - ENE 6 7 3 4 1008.9 1008.9 -
24/05:00pm 24.3 - - - - ENE 6 7 3 4 1008.9 1008.9 -
24/04:30pm 24.3 - - - - NE 7 9 4 5 1009.2 1009.2 -
24/04:00pm 24.5 - - - - ENE 6 7 3 4 1009.4 1009.4 -
24/03:30pm 24.5 - - - - E 6 9 3 5 1009.6 1009.6 -
24/03:00pm 24.5 - - - - SE 9 15 5 8 1009.7 1009.7 -
24/02:30pm 24.8 - - - - SE 13 19 7 10 1010.1 1010.1 -
24/02:00pm 25.1 - - - - SSE 13 20 7 11 1010.5 1010.5 -
24/01:30pm 25.1 - - - - SSE 15 24 8 13 1010.7 1010.7 -

Other formats

Comma delimited format used in spreadsheet applications
http://www.bom.gov.au/fwo/IDN60801/IDN60801.95745.axf

JavaScript Object Notation format (JSON) in row-major order
http://www.bom.gov.au/fwo/IDN60801/IDN60801.95745.json

Data quality

Most of these data are generated automatically and are frequently updated. Quality checks on data are not normally performed. It is possible for incorrect values to appear. Refer to information at About Latest Weather Observations and please check the disclaimer before using these data.